createdAt,value
2018-01-02T00:01:18.834Z,6.90
2018-01-02T00:03:47.631Z,6.90
2018-01-02T00:06:15.486Z,6.90
2018-01-02T00:08:43.263Z,6.80
2018-01-02T00:11:11.017Z,6.80
2018-01-02T00:13:38.892Z,6.90
2018-01-02T00:16:06.734Z,6.80
2018-01-02T00:18:34.907Z,6.80
2018-01-02T00:21:02.684Z,6.80
2018-01-02T00:23:30.762Z,6.70
2018-01-02T00:25:58.619Z,6.60
2018-01-02T00:28:26.388Z,6.50
2018-01-02T00:30:54.322Z,6.30
2018-01-02T00:33:22.428Z,6.20
2018-01-02T00:35:50.277Z,6.10
2018-01-02T00:38:18.168Z,5.80
2018-01-02T00:40:45.929Z,5.60
2018-01-02T00:43:14.401Z,5.50
2018-01-02T00:45:42.168Z,5.40
2018-01-02T00:48:09.936Z,5.30
2018-01-02T00:50:37.905Z,5.30
2018-01-02T00:53:05.774Z,5.20
2018-01-02T00:55:33.512Z,5.40
2018-01-02T00:58:01.503Z,5.40
2018-01-02T01:00:29.263Z,5.40
2018-01-02T01:02:57.032Z,5.40
2018-01-02T01:05:24.895Z,5.40
2018-01-02T01:07:53.722Z,5.60
2018-01-02T01:10:22.683Z,5.50
2018-01-02T01:12:51.206Z,5.40
2018-01-02T01:15:18.974Z,5.40
2018-01-02T01:17:46.788Z,5.40
2018-01-02T01:20:14.787Z,5.30
2018-01-02T01:22:42.537Z,5.30
2018-01-02T01:25:10.580Z,5.60
2018-01-02T01:27:38.545Z,5.60
2018-01-02T01:30:06.436Z,5.50
2018-01-02T01:32:34.774Z,5.40
2018-01-02T01:35:02.779Z,5.30
2018-01-02T01:37:30.646Z,5.40
2018-01-02T01:39:59.988Z,5.30
2018-01-02T01:42:28.546Z,5.40
2018-01-02T01:44:57.102Z,5.50
2018-01-02T01:47:24.873Z,5.50
2018-01-02T01:49:52.941Z,5.50
2018-01-02T01:52:20.843Z,5.40
2018-01-02T01:54:49.424Z,5.50
2018-01-02T01:57:17.977Z,5.50
2018-01-02T01:59:46.050Z,5.50
2018-01-02T02:02:13.812Z,5.70
2018-01-02T02:04:41.658Z,5.90
2018-01-02T02:07:09.563Z,5.90
2018-01-02T02:09:37.370Z,5.80
2018-01-02T02:12:05.174Z,5.70
2018-01-02T02:14:33.561Z,5.70
2018-01-02T02:17:01.316Z,5.70
2018-01-02T02:19:29.185Z,5.70
2018-01-02T02:21:57.049Z,5.70
2018-01-02T02:24:24.916Z,5.60
2018-01-02T02:26:52.922Z,5.40
2018-01-02T02:29:21.794Z,5.60
2018-01-02T02:31:49.637Z,5.60
2018-01-02T02:34:17.447Z,5.60
2018-01-02T02:36:45.989Z,5.50
2018-01-02T02:39:13.958Z,5.50
2018-01-02T02:41:41.908Z,5.50
2018-01-02T02:44:09.774Z,5.60
2018-01-02T02:46:37.669Z,5.60
2018-01-02T02:49:05.423Z,5.60
2018-01-02T02:51:33.292Z,5.60
2018-01-02T02:54:01.138Z,5.60
2018-01-02T02:56:28.965Z,5.60
2018-01-02T02:58:57.603Z,5.50
2018-01-02T03:01:25.381Z,5.50
2018-01-02T03:03:53.226Z,5.50
2018-01-02T03:06:21.062Z,5.40
2018-01-02T03:08:48.923Z,5.40
2018-01-02T03:11:16.923Z,5.40
2018-01-02T03:13:44.694Z,5.40
2018-01-02T03:16:12.652Z,5.40
2018-01-02T03:18:40.384Z,5.30
2018-01-02T03:21:08.199Z,5.30
2018-01-02T03:23:36.044Z,5.20
2018-01-02T03:26:03.977Z,5.20
2018-01-02T03:28:31.882Z,5.20
2018-01-02T03:30:59.714Z,5.10
2018-01-02T03:33:27.728Z,5.10
2018-01-02T03:35:55.506Z,5.20
2018-01-02T03:38:23.358Z,5.20
2018-01-02T03:40:51.417Z,5.10
2018-01-02T03:43:19.163Z,5.10
2018-01-02T03:45:46.887Z,5.10
2018-01-02T03:48:15.395Z,5.10
2018-01-02T03:50:43.698Z,5.10
2018-01-02T03:53:11.479Z,5.10
2018-01-02T03:55:39.234Z,5.20
2018-01-02T03:58:06.991Z,5.20
2018-01-02T04:00:34.791Z,5.10
2018-01-02T04:03:02.543Z,5.10
2018-01-02T04:05:30.410Z,5.10
2018-01-02T04:07:58.476Z,5.20
2018-01-02T04:10:26.357Z,5.20
2018-01-02T04:12:55.247Z,5.30
2018-01-02T04:15:23.531Z,5.30
2018-01-02T04:17:51.625Z,5.40
2018-01-02T04:20:19.544Z,5.40
2018-01-02T04:22:47.502Z,5.40
2018-01-02T04:25:15.291Z,5.40
2018-01-02T04:27:43.149Z,5.30
2018-01-02T04:30:11.022Z,5.40
2018-01-02T04:32:38.982Z,5.50
2018-01-02T04:35:08.177Z,5.60
2018-01-02T04:37:39.730Z,5.60
2018-01-02T04:40:11.386Z,5.60
2018-01-02T04:42:39.253Z,5.70
2018-01-02T04:45:07.117Z,5.70
2018-01-02T04:47:34.990Z,5.70
2018-01-02T04:50:02.951Z,5.60
2018-01-02T04:52:30.925Z,5.70
2018-01-02T04:54:58.775Z,5.70
2018-01-02T04:57:26.847Z,5.60
2018-01-02T04:59:54.824Z,5.60
2018-01-02T05:02:22.737Z,5.40
2018-01-02T05:04:51.282Z,5.30
2018-01-02T05:07:19.161Z,5.30
2018-01-02T05:09:47.100Z,5.20
2018-01-02T05:12:14.987Z,5.30
2018-01-02T05:14:42.753Z,5.30
2018-01-02T05:17:10.731Z,5.20
2018-01-02T05:19:38.587Z,5.30
2018-01-02T05:22:07.137Z,5.40
2018-01-02T05:24:34.931Z,5.40
2018-01-02T05:27:02.983Z,5.40
2018-01-02T05:29:31.691Z,5.30
2018-01-02T05:31:59.553Z,5.30
2018-01-02T05:34:27.315Z,5.20
2018-01-02T05:36:56.122Z,5.10
2018-01-02T05:39:25.494Z,4.90
2018-01-02T05:41:53.360Z,4.90
2018-01-02T05:44:21.182Z,4.90
2018-01-02T05:46:49.666Z,4.90
2018-01-02T05:49:17.587Z,4.90
2018-01-02T05:51:45.436Z,4.90
2018-01-02T05:54:13.207Z,4.90
2018-01-02T05:56:40.954Z,4.90
2018-01-02T05:59:08.702Z,4.90
2018-01-02T06:01:36.439Z,5.00
2018-01-02T06:04:05.121Z,5.00
2018-01-02T06:06:33.003Z,5.00
2018-01-02T06:09:10.537Z,4.90
2018-01-02T06:11:38.506Z,4.90
2018-01-02T06:14:06.395Z,4.80
2018-01-02T06:16:34.255Z,4.80
2018-01-02T06:19:02.210Z,4.90
2018-01-02T06:21:29.963Z,4.90
2018-01-02T06:23:57.750Z,5.10
2018-01-02T06:26:25.714Z,5.20
2018-01-02T06:28:53.640Z,5.30
2018-01-02T06:31:22.166Z,5.30
2018-01-02T06:33:49.915Z,5.30
2018-01-02T06:36:17.697Z,5.40
2018-01-02T06:38:45.477Z,5.40
2018-01-02T06:41:13.228Z,5.50
2018-01-02T06:43:41.220Z,5.40
2018-01-02T06:46:09.980Z,5.40
2018-01-02T06:48:37.832Z,5.40
2018-01-02T06:51:05.596Z,5.40
2018-01-02T06:53:33.384Z,5.50
2018-01-02T06:56:02.678Z,5.50
2018-01-02T07:01:05.187Z,5.50
2018-01-02T07:03:33.041Z,5.50
2018-01-02T07:06:00.986Z,5.50
2018-01-02T07:08:28.856Z,5.70
2018-01-02T07:10:56.610Z,5.60
2018-01-02T07:13:24.516Z,5.40
2018-01-02T07:15:52.366Z,5.10
2018-01-02T07:18:20.338Z,5.00
2018-01-02T07:20:48.095Z,4.90
2018-01-02T07:23:15.963Z,4.80
2018-01-02T07:25:43.835Z,4.90
2018-01-02T07:28:11.702Z,4.90
2018-01-02T07:30:39.546Z,4.90
2018-01-02T07:33:07.428Z,5.00
2018-01-02T07:35:35.182Z,5.00
2018-01-02T07:38:03.060Z,4.90
2018-01-02T07:40:31.642Z,4.80
2018-01-02T07:42:59.507Z,4.80
2018-01-02T07:45:27.376Z,4.70
2018-01-02T07:47:55.226Z,4.70
2018-01-02T07:50:23.827Z,4.60
2018-01-02T07:52:51.810Z,4.50
2018-01-02T07:55:19.556Z,4.60
2018-01-02T07:57:48.330Z,4.50
2018-01-02T08:00:16.191Z,4.50
2018-01-02T08:02:43.958Z,4.60
2018-01-02T08:05:11.828Z,4.60
2018-01-02T08:07:39.612Z,4.60
2018-01-02T08:10:07.575Z,4.60
2018-01-02T08:12:35.446Z,4.70
2018-01-02T08:15:03.260Z,4.70
2018-01-02T08:17:31.083Z,4.80
2018-01-02T08:19:58.944Z,4.80
2018-01-02T08:22:26.989Z,4.80
2018-01-02T08:24:54.807Z,4.80
2018-01-02T08:27:23.063Z,4.90
2018-01-02T08:29:50.950Z,4.80
2018-01-02T08:32:19.506Z,4.80
2018-01-02T08:34:47.345Z,4.80
2018-01-02T08:37:15.341Z,4.80
2018-01-02T08:39:43.916Z,4.70
2018-01-02T08:42:11.782Z,4.60
2018-01-02T08:44:39.599Z,4.60
2018-01-02T08:47:07.364Z,4.50
2018-01-02T08:49:35.108Z,4.40
2018-01-02T08:52:03.722Z,4.30
2018-01-02T08:54:32.739Z,4.30
2018-01-02T08:57:00.631Z,4.30
2018-01-02T08:59:28.390Z,4.40
2018-01-02T09:01:56.162Z,4.50
2018-01-02T09:04:23.996Z,4.70
2018-01-02T09:06:51.778Z,4.80
2018-01-02T09:09:19.649Z,4.80
2018-01-02T09:11:48.533Z,4.80
2018-01-02T09:14:16.388Z,4.80
2018-01-02T09:16:44.453Z,4.70
2018-01-02T09:19:12.233Z,4.70
2018-01-02T09:21:40.987Z,4.80
2018-01-02T09:24:08.813Z,4.90
2018-01-02T09:26:36.748Z,4.90
2018-01-02T09:29:04.521Z,4.90
2018-01-02T09:31:32.405Z,4.90
2018-01-02T09:34:00.267Z,5.00
2018-01-02T09:36:28.102Z,5.00
2018-01-02T09:38:55.851Z,5.00
2018-01-02T09:41:23.659Z,5.00
2018-01-02T09:43:54.364Z,5.10
2018-01-02T09:46:22.351Z,5.20
2018-01-02T09:48:50.230Z,5.30
2018-01-02T09:51:17.962Z,5.40
2018-01-02T09:53:45.724Z,5.40
2018-01-02T09:56:23.442Z,5.50
2018-01-02T09:58:51.416Z,5.50
2018-01-02T10:01:19.274Z,5.60
2018-01-02T10:03:47.247Z,5.60
2018-01-02T10:06:14.982Z,5.60
2018-01-02T10:08:42.965Z,5.50
2018-01-02T10:11:10.747Z,5.60
2018-01-02T10:13:38.610Z,5.60
2018-01-02T10:16:06.371Z,5.70
2018-01-02T10:18:34.348Z,5.80
2018-01-02T10:21:02.395Z,5.90
2018-01-02T10:23:30.267Z,5.90
2018-01-02T10:25:58.131Z,6.00
2018-01-02T10:28:26.510Z,6.00
2018-01-02T10:30:54.401Z,6.00
2018-01-02T10:33:22.464Z,5.80
2018-01-02T10:35:50.372Z,5.90
2018-01-02T10:38:19.219Z,5.90
2018-01-02T10:40:48.195Z,5.90
2018-01-02T10:43:16.078Z,5.90
2018-01-02T10:45:43.837Z,6.00
2018-01-02T10:48:11.602Z,6.00
2018-01-02T10:50:39.485Z,6.00
2018-01-02T10:53:07.346Z,6.00
2018-01-02T10:55:35.218Z,6.00
2018-01-02T10:58:02.967Z,6.00
2018-01-02T11:03:28.911Z,5.90
2018-01-02T11:05:56.686Z,5.90
2018-01-02T11:08:24.538Z,5.90
2018-01-02T11:10:58.229Z,5.90
2018-01-02T11:13:31.638Z,5.90
2018-01-02T11:16:00.328Z,5.90
2018-01-02T11:18:28.093Z,6.00
2018-01-02T11:20:55.953Z,6.00
2018-01-02T11:23:23.800Z,6.10
2018-01-02T11:25:51.673Z,6.20
2018-01-02T11:28:19.449Z,6.20
2018-01-02T11:30:47.410Z,6.30
2018-01-02T11:33:15.252Z,6.40
2018-01-02T11:35:43.020Z,6.40
2018-01-02T11:38:10.820Z,6.40
2018-01-02T11:40:40.635Z,6.40
2018-01-02T11:43:08.476Z,6.50
2018-01-02T11:45:36.257Z,6.60
2018-01-02T11:48:04.123Z,6.50
2018-01-02T11:50:31.991Z,6.50
2018-01-02T11:52:59.717Z,6.50
2018-01-02T11:55:27.743Z,6.50
2018-01-02T11:57:55.709Z,6.40
2018-01-02T12:00:23.462Z,6.40
2018-01-02T12:02:51.423Z,6.40
2018-01-02T12:05:19.288Z,6.50
2018-01-02T12:07:47.242Z,6.40
2018-01-02T12:10:15.140Z,6.40
2018-01-02T12:12:42.910Z,6.30
2018-01-02T12:15:10.760Z,6.30
2018-01-02T12:17:38.621Z,6.40
2018-01-02T12:20:06.428Z,6.40
2018-01-02T12:22:34.259Z,6.30
2018-01-02T12:25:02.949Z,6.40
2018-01-02T12:27:30.892Z,6.40
2018-01-02T12:29:58.669Z,6.40
2018-01-02T12:32:26.627Z,6.50
2018-01-02T12:34:54.517Z,6.60
2018-01-02T12:37:23.907Z,6.60
2018-01-02T12:39:51.834Z,6.60
2018-01-02T12:42:19.726Z,6.60
2018-01-02T12:44:47.803Z,6.70
2018-01-02T12:47:16.753Z,6.80
2018-01-02T12:49:44.657Z,6.80
2018-01-02T12:52:12.449Z,6.90
2018-01-02T12:54:40.390Z,6.90
2018-01-02T12:57:08.170Z,6.80
2018-01-02T12:59:35.927Z,6.80
2018-01-02T13:02:03.704Z,6.80
2018-01-02T13:04:31.629Z,6.70
2018-01-02T13:06:59.369Z,6.70
2018-01-02T13:09:27.903Z,6.70
2018-01-02T13:11:55.790Z,6.70
2018-01-02T13:14:24.687Z,6.70
2018-01-02T13:16:52.538Z,6.70
2018-01-02T13:19:20.406Z,6.60
2018-01-02T13:21:48.375Z,6.40
2018-01-02T13:24:16.427Z,5.70
2018-01-02T13:26:44.404Z,5.20
2018-01-02T13:29:12.277Z,5.00
2018-01-02T13:31:40.242Z,4.80
2018-01-02T13:34:08.200Z,4.60
2018-01-02T13:36:36.289Z,4.60
2018-01-02T13:39:04.156Z,4.60
2018-01-02T13:41:31.891Z,4.60
2018-01-02T13:43:59.789Z,4.70
2018-01-02T13:46:27.755Z,5.00
2018-01-02T13:48:55.630Z,5.20
2018-01-02T13:51:23.633Z,5.20
2018-01-02T13:53:52.276Z,5.30
2018-01-02T13:56:20.992Z,5.30
2018-01-02T13:58:49.647Z,5.40
2018-01-02T14:01:17.832Z,5.40
2018-01-02T14:03:45.706Z,5.40
2018-01-02T14:06:13.561Z,5.50
2018-01-02T14:08:41.422Z,5.40
2018-01-02T14:11:09.283Z,5.30
2018-01-02T14:13:37.147Z,5.20
2018-01-02T14:16:05.127Z,5.20
2018-01-02T14:18:33.275Z,5.30
2018-01-02T14:21:01.077Z,5.30
2018-01-02T14:23:28.922Z,5.40
2018-01-02T14:25:56.695Z,5.40
2018-01-02T14:28:24.552Z,5.40
2018-01-02T14:30:52.410Z,5.40
2018-01-02T14:33:20.235Z,5.50
2018-01-02T14:35:48.055Z,5.60
2018-01-02T14:38:15.845Z,5.60
2018-01-02T14:43:24.674Z,5.70
2018-01-02T14:45:52.612Z,5.70
2018-01-02T14:48:20.399Z,5.70
2018-01-02T14:50:48.239Z,5.80
2018-01-02T14:53:16.108Z,5.70
2018-01-02T14:55:43.914Z,5.70
2018-01-02T14:58:12.655Z,5.70
2018-01-02T15:00:40.518Z,5.70
2018-01-02T15:03:08.387Z,5.60
2018-01-02T15:05:36.196Z,5.50
2018-01-02T15:08:04.939Z,5.30
2018-01-02T15:10:33.730Z,5.30
2018-01-02T15:13:01.766Z,5.20
2018-01-02T15:15:29.775Z,5.20
2018-01-02T15:17:58.077Z,5.20
2018-01-02T15:20:26.111Z,5.10
2018-01-02T15:22:53.997Z,4.90
2018-01-02T15:25:22.000Z,4.80
2018-01-02T15:27:50.550Z,4.50
2018-01-02T15:30:18.329Z,4.50
2018-01-02T15:32:46.214Z,4.40
2018-01-02T15:35:14.749Z,4.10
2018-01-02T15:37:42.748Z,4.10
2018-01-02T15:40:10.710Z,4.00
2018-01-02T15:42:39.376Z,3.90
2018-01-02T15:45:07.333Z,3.90
2018-01-02T15:47:35.236Z,3.70
2018-01-02T15:50:03.097Z,3.60
2018-01-02T15:52:30.986Z,3.60
2018-01-02T15:54:59.665Z,3.90
2018-01-02T15:57:27.601Z,3.90
2018-01-02T15:59:55.565Z,3.80
2018-01-02T16:02:24.460Z,3.90
2018-01-02T16:04:53.134Z,3.80
2018-01-02T16:07:20.966Z,3.90
2018-01-02T16:09:48.971Z,4.10
2018-01-02T16:12:18.215Z,4.10
2018-01-02T16:14:46.897Z,4.10
2018-01-02T16:17:14.725Z,4.10
2018-01-02T16:19:42.617Z,4.10
2018-01-02T16:22:12.091Z,4.10
2018-01-02T16:24:40.364Z,4.10
2018-01-02T16:27:08.337Z,4.20
2018-01-02T16:29:36.471Z,4.10
2018-01-02T16:32:04.517Z,4.20
2018-01-02T16:34:33.296Z,4.30
2018-01-02T16:37:01.340Z,4.20
2018-01-02T16:39:29.413Z,4.20
2018-01-02T16:41:57.257Z,4.10
2018-01-02T16:44:25.499Z,4.10
2018-01-02T16:46:54.785Z,4.00
2018-01-02T16:49:22.821Z,4.00
2018-01-02T16:51:50.798Z,4.00
2018-01-02T16:54:19.806Z,4.00
2018-01-02T16:56:47.656Z,4.00
2018-01-02T16:59:15.517Z,4.00
2018-01-02T17:01:43.483Z,4.00
2018-01-02T17:04:11.484Z,4.20
2018-01-02T17:06:39.344Z,4.30
2018-01-02T17:09:07.310Z,4.40
2018-01-02T17:11:35.474Z,4.50
2018-01-02T17:14:03.533Z,4.40
2018-01-02T17:16:32.661Z,4.40
2018-01-02T17:19:00.602Z,4.20
2018-01-02T17:21:28.364Z,4.20
2018-01-02T17:23:56.340Z,4.10
2018-01-02T17:26:24.307Z,4.20
2018-01-02T17:28:52.457Z,4.20
2018-01-02T17:31:20.257Z,4.10
2018-01-02T17:33:48.204Z,4.20
2018-01-02T17:36:16.181Z,4.20
2018-01-02T17:38:43.975Z,4.30
2018-01-02T17:41:12.035Z,4.20
2018-01-02T17:43:40.695Z,4.30
2018-01-02T17:46:08.978Z,4.20
2018-01-02T17:48:36.944Z,4.20
2018-01-02T17:51:04.940Z,4.20
2018-01-02T17:53:32.795Z,4.30
2018-01-02T17:56:00.654Z,4.40
2018-01-02T17:58:28.525Z,4.40
2018-01-02T18:00:57.516Z,4.40
2018-01-02T18:03:25.535Z,4.30
2018-01-02T18:05:54.374Z,4.30
2018-01-02T18:08:22.369Z,4.30
2018-01-02T18:10:50.984Z,4.10
2018-01-02T18:13:18.817Z,4.20
2018-01-02T18:15:46.758Z,4.20
2018-01-02T18:18:14.717Z,4.20
2018-01-02T18:20:42.535Z,4.20
2018-01-02T18:23:11.244Z,4.30
2018-01-02T18:25:39.141Z,4.30
2018-01-02T18:28:07.226Z,4.30
2018-01-02T18:30:35.045Z,4.30
2018-01-02T18:33:02.846Z,4.30
2018-01-02T18:35:30.821Z,4.30
2018-01-02T18:37:58.924Z,4.20
2018-01-02T18:40:27.712Z,4.00
2018-01-02T18:42:56.486Z,3.90
2018-01-02T18:45:25.475Z,3.90
2018-01-02T18:47:53.651Z,4.00
2018-01-02T18:50:22.941Z,4.00
2018-01-02T18:52:51.009Z,4.00
2018-01-02T18:55:18.877Z,4.00
2018-01-02T18:57:46.829Z,4.00
2018-01-02T19:00:14.997Z,4.00
2018-01-02T19:02:42.886Z,4.10
2018-01-02T19:05:10.743Z,4.10
2018-01-02T19:07:39.647Z,4.10
2018-01-02T19:10:07.864Z,4.10
2018-01-02T19:12:35.808Z,4.00
2018-01-02T19:15:04.642Z,4.00
2018-01-02T19:17:32.746Z,4.00
2018-01-02T19:20:01.978Z,4.00
2018-01-02T19:22:30.719Z,4.00
2018-01-02T19:24:58.594Z,3.90
2018-01-02T19:27:26.876Z,3.90
2018-01-02T19:29:55.024Z,3.90
2018-01-02T19:32:24.222Z,3.80
2018-01-02T19:34:52.087Z,3.80
2018-01-02T19:37:19.980Z,3.70
2018-01-02T19:39:49.976Z,4.00
2018-01-02T19:42:18.457Z,4.00
2018-01-02T19:44:46.727Z,4.00
2018-01-02T19:47:14.698Z,4.10
2018-01-02T19:49:42.596Z,4.10
2018-01-02T19:52:11.351Z,4.10
2018-01-02T19:54:39.122Z,4.10
2018-01-02T19:57:07.050Z,4.00
2018-01-02T19:59:35.053Z,3.90
2018-01-02T20:02:03.225Z,3.80
2018-01-02T20:04:31.092Z,3.80
2018-01-02T20:06:59.722Z,3.80
2018-01-02T20:09:28.469Z,3.70
2018-01-02T20:11:56.462Z,3.70
2018-01-02T20:14:24.506Z,3.70
2018-01-02T20:16:52.606Z,3.80
2018-01-02T20:19:20.547Z,3.70
2018-01-02T20:21:48.512Z,3.70
2018-01-02T20:24:16.899Z,3.70
2018-01-02T20:26:44.963Z,3.70
2018-01-02T20:29:13.552Z,3.80
2018-01-02T20:31:41.621Z,3.80
2018-01-02T20:34:09.689Z,3.80
2018-01-02T20:36:37.587Z,3.90
2018-01-02T20:39:05.527Z,3.90
2018-01-02T20:41:33.932Z,3.80
2018-01-02T20:44:02.081Z,3.80
2018-01-02T20:46:31.073Z,3.70
2018-01-02T20:48:59.161Z,3.70
2018-01-02T20:51:27.134Z,3.70
2018-01-02T20:53:55.299Z,3.70
2018-01-02T20:56:23.458Z,3.70
2018-01-02T20:58:51.349Z,3.80
2018-01-02T21:01:20.138Z,3.90
2018-01-02T21:03:48.471Z,3.90
2018-01-02T21:06:16.360Z,4.00
2018-01-02T21:08:44.837Z,4.20
2018-01-02T21:11:12.816Z,4.20
2018-01-02T21:13:41.177Z,4.10
2018-01-02T21:16:09.840Z,4.20
2018-01-02T21:18:37.734Z,4.30
2018-01-02T21:21:05.806Z,4.30
2018-01-02T21:23:34.010Z,4.40
2018-01-02T21:26:02.608Z,4.40
2018-01-02T21:28:31.180Z,4.40
2018-01-02T21:31:00.279Z,4.30
2018-01-02T21:33:28.247Z,4.30
2018-01-02T21:35:56.093Z,4.20
2018-01-02T21:38:25.591Z,4.30
2018-01-02T21:40:53.823Z,4.50
2018-01-02T21:43:21.928Z,4.60
2018-01-02T21:45:49.982Z,4.70
2018-01-02T21:48:18.165Z,4.70
2018-01-02T21:50:46.343Z,4.60
2018-01-02T21:53:14.341Z,4.50
2018-01-02T21:55:42.926Z,4.40
2018-01-02T21:58:11.784Z,4.50
2018-01-02T22:00:39.861Z,4.50
2018-01-02T22:03:07.736Z,4.60
2018-01-02T22:05:35.727Z,4.50
2018-01-02T22:08:03.579Z,4.60
2018-01-02T22:10:31.440Z,4.80
2018-01-02T22:12:59.331Z,4.80
2018-01-02T22:15:27.359Z,4.70
2018-01-02T22:17:55.246Z,4.80
2018-01-02T22:20:23.297Z,4.60
2018-01-02T22:22:51.266Z,4.50
2018-01-02T22:25:19.160Z,4.40
2018-01-02T22:27:47.025Z,4.20
2018-01-02T22:30:14.886Z,4.20
2018-01-02T22:32:42.731Z,4.20
2018-01-02T22:35:10.631Z,4.10
2018-01-02T22:37:39.745Z,4.10
2018-01-02T22:40:08.412Z,4.10
2018-01-02T22:42:36.244Z,4.10
2018-01-02T22:45:04.439Z,4.00
2018-01-02T22:47:32.793Z,4.00
2018-01-02T22:50:00.697Z,3.90
2018-01-02T22:52:29.211Z,3.70
2018-01-02T22:54:57.212Z,3.70
2018-01-02T22:57:25.014Z,3.70
2018-01-02T22:59:52.976Z,3.70
2018-01-02T23:02:20.834Z,3.60
2018-01-02T23:04:48.681Z,3.60
2018-01-02T23:07:16.547Z,3.50
2018-01-02T23:09:44.509Z,3.50
2018-01-02T23:12:12.497Z,3.40
2018-01-02T23:14:40.284Z,3.40
2018-01-02T23:17:08.131Z,3.30
2018-01-02T23:19:36.016Z,3.20
2018-01-02T23:22:03.950Z,3.10
2018-01-02T23:24:32.021Z,3.00
2018-01-02T23:27:00.195Z,2.90
2018-01-02T23:29:28.079Z,2.90
2018-01-02T23:31:55.964Z,2.80
2018-01-02T23:34:24.030Z,2.60
2018-01-02T23:36:51.887Z,2.60
2018-01-02T23:39:20.702Z,2.50
2018-01-02T23:41:48.535Z,2.50
2018-01-02T23:44:16.364Z,2.50
2018-01-02T23:46:45.810Z,2.40
2018-01-02T23:49:14.449Z,2.40
2018-01-02T23:51:42.252Z,2.40
2018-01-02T23:54:10.036Z,2.40
2018-01-02T23:56:37.886Z,2.40
2018-01-02T23:59:05.755Z,2.40
